sensor_id;sensor_type;location;lat;lon;timestamp;pressure;altitude;pressure_sealevel;temperature;humidity
61537;BME280;48695;53.480;-6.300;2023-04-22T00:02:25;100372.59;;;13.99;56.74
61537;BME280;48695;53.480;-6.300;2023-04-22T00:04:51;100365.63;;;13.98;56.53
61537;BME280;48695;53.480;-6.300;2023-04-22T00:07:16;100369.13;;;13.99;56.53
61537;BME280;48695;53.480;-6.300;2023-04-22T00:09:42;100355.13;;;13.98;56.99
61537;BME280;48695;53.480;-6.300;2023-04-22T00:12:08;100357.75;;;13.98;56.63
61537;BME280;48695;53.480;-6.300;2023-04-22T00:14:35;100347.47;;;13.94;56.96
61537;BME280;48695;53.480;-6.300;2023-04-22T00:17:01;100357.97;;;13.94;56.79
61537;BME280;48695;53.480;-6.300;2023-04-22T00:19:27;100347.31;;;13.97;56.93
61537;BME280;48695;53.480;-6.300;2023-04-22T00:21:53;100345.63;;;13.96;57.02
61537;BME280;48695;53.480;-6.300;2023-04-22T00:24:18;100336.97;;;13.94;57.35
61537;BME280;48695;53.480;-6.300;2023-04-22T00:26:44;100331.72;;;13.94;56.77
61537;BME280;48695;53.480;-6.300;2023-04-22T00:29:09;100329.22;;;13.91;57.21
61537;BME280;48695;53.480;-6.300;2023-04-22T00:31:35;100319.75;;;13.87;57.47
61537;BME280;48695;53.480;-6.300;2023-04-22T00:34:00;100319.63;;;13.90;57.23
61537;BME280;48695;53.480;-6.300;2023-04-22T00:36:26;100317.00;;;13.90;57.51
61537;BME280;48695;53.480;-6.300;2023-04-22T00:38:52;100319.63;;;13.90;57.65
61537;BME280;48695;53.480;-6.300;2023-04-22T00:41:18;100317.91;;;13.89;57.47
61537;BME280;48695;53.480;-6.300;2023-04-22T00:43:44;100317.06;;;13.88;57.24
61537;BME280;48695;53.480;-6.300;2023-04-22T00:46:10;100316.19;;;13.88;57.36
61537;BME280;48695;53.480;-6.300;2023-04-22T00:48:39;100304.78;;;13.89;57.08
61537;BME280;48695;53.480;-6.300;2023-04-22T00:51:05;100304.00;;;13.87;57.18
61537;BME280;48695;53.480;-6.300;2023-04-22T00:53:30;100303.06;;;13.88;57.50
61537;BME280;48695;53.480;-6.300;2023-04-22T00:55:57;100303.16;;;13.86;57.84
61537;BME280;48695;53.480;-6.300;2023-04-22T00:58:27;100304.00;;;13.87;57.69
61537;BME280;48695;53.480;-6.300;2023-04-22T01:00:53;100291.81;;;13.86;57.53
61537;BME280;48695;53.480;-6.300;2023-04-22T01:03:19;100285.25;;;13.75;57.83
61537;BME280;48695;53.480;-6.300;2023-04-22T01:05:46;100298.88;;;13.84;57.68
61537;BME280;48695;53.480;-6.300;2023-04-22T01:08:13;100297.16;;;13.83;57.75
61537;BME280;48695;53.480;-6.300;2023-04-22T01:10:40;100295.47;;;13.82;57.79
61537;BME280;48695;53.480;-6.300;2023-04-22T01:13:05;100285.09;;;13.79;57.72
61537;BME280;48695;53.480;-6.300;2023-04-22T01:15:31;100293.88;;;13.77;57.93
61537;BME280;48695;53.480;-6.300;2023-04-22T01:17:57;100288.63;;;13.77;58.24
61537;BME280;48695;53.480;-6.300;2023-04-22T01:20:24;100280.00;;;13.75;58.19
61537;BME280;48695;53.480;-6.300;2023-04-22T01:22:54;100273.94;;;13.73;57.89
61537;BME280;48695;53.480;-6.300;2023-04-22T01:25:26;100261.88;;;13.69;57.84
61537;BME280;48695;53.480;-6.300;2023-04-22T01:27:52;100264.50;;;13.69;58.15
61537;BME280;48695;53.480;-6.300;2023-04-22T01:30:17;100261.09;;;13.67;58.28
61537;BME280;48695;53.480;-6.300;2023-04-22T01:32:43;100255.84;;;13.67;58.12
61537;BME280;48695;53.480;-6.300;2023-04-22T01:35:09;100250.59;;;13.67;58.35
61537;BME280;48695;53.480;-6.300;2023-04-22T01:37:35;100238.66;;;13.60;58.11
61537;BME280;48695;53.480;-6.300;2023-04-22T01:40:01;100248.88;;;13.66;58.19
61537;BME280;48695;53.480;-6.300;2023-04-22T01:42:29;100217.94;;;13.54;57.85
61537;BME280;48695;53.480;-6.300;2023-04-22T01:44:55;100226.31;;;13.62;58.22
61537;BME280;48695;53.480;-6.300;2023-04-22T01:47:20;100233.25;;;13.63;58.44
61537;BME280;48695;53.480;-6.300;2023-04-22T01:49:46;100221.06;;;13.62;58.16
61537;BME280;48695;53.480;-6.300;2023-04-22T01:52:12;100227.25;;;13.61;58.06
61537;BME280;48695;53.480;-6.300;2023-04-22T01:54:37;100221.22;;;13.59;58.34
61537;BME280;48695;53.480;-6.300;2023-04-22T01:57:08;100228.16;;;13.60;57.58
61537;BME280;48695;53.480;-6.300;2023-04-22T01:59:34;100226.50;;;13.58;58.40
61537;BME280;48695;53.480;-6.300;2023-04-22T02:02:00;100228.28;;;13.57;58.21
61537;BME280;48695;53.480;-6.300;2023-04-22T02:04:25;100219.63;;;13.55;58.03
61537;BME280;48695;53.480;-6.300;2023-04-22T02:06:50;100220.56;;;13.54;58.06
61537;BME280;48695;53.480;-6.300;2023-04-22T02:09:16;100215.34;;;13.53;58.22
61537;BME280;48695;53.480;-6.300;2023-04-22T02:11:41;100220.59;;;13.53;57.86
61537;BME280;48695;53.480;-6.300;2023-04-22T02:14:07;100223.22;;;13.53;58.02
61537;BME280;48695;53.480;-6.300;2023-04-22T02:16:32;100219.75;;;13.52;58.09
61537;BME280;48695;53.480;-6.300;2023-04-22T02:18:57;100225.00;;;13.52;57.86
61537;BME280;48695;53.480;-6.300;2023-04-22T02:21:25;100221.59;;;13.50;58.25
61537;BME280;48695;53.480;-6.300;2023-04-22T02:23:50;100221.53;;;13.52;58.03
61537;BME280;48695;53.480;-6.300;2023-04-22T02:26:16;100218.06;;;13.51;58.27
61537;BME280;48695;53.480;-6.300;2023-04-22T02:28:41;100207.56;;;13.51;58.15
61537;BME280;48695;53.480;-6.300;2023-04-22T02:31:07;100201.53;;;13.49;58.03
61537;BME280;48695;53.480;-6.300;2023-04-22T02:33:32;100204.94;;;13.51;58.02
61537;BME280;48695;53.480;-6.300;2023-04-22T02:35:57;100204.88;;;13.53;57.85
61537;BME280;48695;53.480;-6.300;2023-04-22T02:38:23;100213.59;;;13.53;58.17
61537;BME280;48695;53.480;-6.300;2023-04-22T02:40:48;100193.53;;;13.52;58.06
61537;BME280;48695;53.480;-6.300;2023-04-22T02:43:14;100191.81;;;13.51;57.97
61537;BME280;48695;53.480;-6.300;2023-04-22T02:45:39;100193.53;;;13.52;58.21
61537;BME280;48695;53.480;-6.300;2023-04-22T02:48:05;100168.75;;;13.39;58.36
61537;BME280;48695;53.480;-6.300;2023-04-22T02:50:30;100183.88;;;13.53;58.42
61537;BME280;48695;53.480;-6.300;2023-04-22T02:52:56;100186.47;;;13.54;58.08
61537;BME280;48695;53.480;-6.300;2023-04-22T02:55:21;100187.34;;;13.53;58.02
61537;BME280;48695;53.480;-6.300;2023-04-22T02:57:48;100179.63;;;13.50;58.09
61537;BME280;48695;53.480;-6.300;2023-04-22T03:00:14;100162.66;;;13.38;58.16
61537;BME280;48695;53.480;-6.300;2023-04-22T03:02:40;100177.09;;;13.48;58.49
61537;BME280;48695;53.480;-6.300;2023-04-22T03:05:05;100177.09;;;13.48;58.34
61537;BME280;48695;53.480;-6.300;2023-04-22T03:07:31;100177.94;;;13.49;58.05
61537;BME280;48695;53.480;-6.300;2023-04-22T03:09:56;100164.03;;;13.47;58.64
61537;BME280;48695;53.480;-6.300;2023-04-22T03:12:23;100152.09;;;13.40;58.35
61537;BME280;48695;53.480;-6.300;2023-04-22T03:14:49;100152.75;;;13.45;58.67
61537;BME280;48695;53.480;-6.300;2023-04-22T03:17:14;100145.84;;;13.42;58.01
61537;BME280;48695;53.480;-6.300;2023-04-22T03:19:40;100147.69;;;13.40;58.19
61537;BME280;48695;53.480;-6.300;2023-04-22T03:22:05;100144.22;;;13.40;58.59
61537;BME280;48695;53.480;-6.300;2023-04-22T03:24:32;100146.03;;;13.38;58.31
61537;BME280;48695;53.480;-6.300;2023-04-22T03:26:58;100088.88;;;13.05;58.29
61537;BME280;48695;53.480;-6.300;2023-04-22T03:29:23;100141.88;;;13.34;58.32
61537;BME280;48695;53.480;-6.300;2023-04-22T03:31:49;100129.94;;;13.27;58.32
61537;BME280;48695;53.480;-6.300;2023-04-22T03:34:14;100128.13;;;13.29;58.33
61537;BME280;48695;53.480;-6.300;2023-04-22T03:36:39;100122.03;;;13.28;58.86
61537;BME280;48695;53.480;-6.300;2023-04-22T03:39:05;100116.03;;;13.24;58.52
61537;BME280;48695;53.480;-6.300;2023-04-22T03:41:30;100121.28;;;13.24;58.62
61537;BME280;48695;53.480;-6.300;2023-04-22T03:43:56;100107.63;;;13.16;58.54
61537;BME280;48695;53.480;-6.300;2023-04-22T03:46:21;100113.59;;;13.20;58.60
61537;BME280;48695;53.480;-6.300;2023-04-22T03:48:47;100104.88;;;13.19;58.64
61537;BME280;48695;53.480;-6.300;2023-04-22T03:51:12;100099.69;;;13.18;59.03
61537;BME280;48695;53.480;-6.300;2023-04-22T03:53:37;100093.72;;;13.14;58.88
61537;BME280;48695;53.480;-6.300;2023-04-22T03:56:03;100092.88;;;13.14;59.01
61537;BME280;48695;53.480;-6.300;2023-04-22T03:58:29;100083.38;;;13.11;58.80
61537;BME280;48695;53.480;-6.300;2023-04-22T04:00:54;100086.91;;;13.10;58.64
61537;BME280;48695;53.480;-6.300;2023-04-22T04:03:20;100083.50;;;13.08;58.69
61537;BME280;48695;53.480;-6.300;2023-04-22T04:05:45;100068.03;;;13.02;58.75
61537;BME280;48695;53.480;-6.300;2023-04-22T04:08:11;100074.84;;;13.06;59.21
61537;BME280;48695;53.480;-6.300;2023-04-22T04:10:36;100063.72;;;13.01;59.08
61537;BME280;48695;53.480;-6.300;2023-04-22T04:13:02;100067.06;;;13.05;58.66
61537;BME280;48695;53.480;-6.300;2023-04-22T04:15:27;100068.84;;;13.04;58.73
61537;BME280;48695;53.480;-6.300;2023-04-22T04:17:53;100058.81;;;12.93;58.76
61537;BME280;48695;53.480;-6.300;2023-04-22T04:20:21;100061.88;;;13.03;59.10
61537;BME280;48695;53.480;-6.300;2023-04-22T04:22:46;100061.09;;;13.01;58.97
61537;BME280;48695;53.480;-6.300;2023-04-22T04:25:11;100043.22;;;12.90;58.80
61537;BME280;48695;53.480;-6.300;2023-04-22T04:27:37;100020.81;;;12.83;58.81
61537;BME280;48695;53.480;-6.300;2023-04-22T04:30:04;100059.38;;;13.00;58.79
61537;BME280;48695;53.480;-6.300;2023-04-22T04:32:30;100053.31;;;12.99;58.69
61537;BME280;48695;53.480;-6.300;2023-04-22T04:34:58;100048.91;;;13.00;58.80
61537;BME280;48695;53.480;-6.300;2023-04-22T04:37:24;100036.72;;;12.99;59.03
61537;BME280;48695;53.480;-6.300;2023-04-22T04:39:50;100038.41;;;13.00;59.03
61537;BME280;48695;53.480;-6.300;2023-04-22T04:42:15;100030.56;;;13.00;58.79
61537;BME280;48695;53.480;-6.300;2023-04-22T04:44:41;99984.31;;;12.79;58.96
61537;BME280;48695;53.480;-6.300;2023-04-22T04:47:07;100008.81;;;12.98;59.14
61537;BME280;48695;53.480;-6.300;2023-04-22T04:49:32;100003.44;;;13.01;58.77
61537;BME280;48695;53.480;-6.300;2023-04-22T04:52:04;99998.19;;;13.01;59.04
61537;BME280;48695;53.480;-6.300;2023-04-22T04:54:29;99967.28;;;12.89;58.72
61537;BME280;48695;53.480;-6.300;2023-04-22T04:56:55;99994.63;;;13.02;58.98
61537;BME280;48695;53.480;-6.300;2023-04-22T04:59:21;99988.53;;;13.02;58.71
61537;BME280;48695;53.480;-6.300;2023-04-22T05:01:47;99977.22;;;13.01;58.72
61537;BME280;48695;53.480;-6.300;2023-04-22T05:04:12;99985.06;;;13.01;59.14
61537;BME280;48695;53.480;-6.300;2023-04-22T05:06:37;99975.59;;;12.98;59.11
61537;BME280;48695;53.480;-6.300;2023-04-22T05:09:03;99984.31;;;12.99;59.14
61537;BME280;48695;53.480;-6.300;2023-04-22T05:11:28;99988.75;;;12.97;59.18
61537;BME280;48695;53.480;-6.300;2023-04-22T05:13:54;99989.66;;;12.96;59.33
61537;BME280;48695;53.480;-6.300;2023-04-22T05:16:20;99993.22;;;12.95;59.22
61537;BME280;48695;53.480;-6.300;2023-04-22T05:18:45;99994.13;;;12.94;59.21
61537;BME280;48695;53.480;-6.300;2023-04-22T05:21:11;99990.72;;;12.92;59.01
61537;BME280;48695;53.480;-6.300;2023-04-22T05:23:36;99982.84;;;12.92;59.08
61537;BME280;48695;53.480;-6.300;2023-04-22T05:26:01;99979.34;;;12.93;59.32
61537;BME280;48695;53.480;-6.300;2023-04-22T05:28:27;99968.84;;;12.93;59.32
61537;BME280;48695;53.480;-6.300;2023-04-22T05:30:52;99967.97;;;12.92;59.16
61537;BME280;48695;53.480;-6.300;2023-04-22T05:33:18;99949.22;;;12.83;59.03
61537;BME280;48695;53.480;-6.300;2023-04-22T05:35:43;99967.13;;;12.92;59.11
61537;BME280;48695;53.480;-6.300;2023-04-22T05:38:08;99965.44;;;12.91;59.08
61537;BME280;48695;53.480;-6.300;2023-04-22T05:40:34;99967.28;;;12.89;59.20
61537;BME280;48695;53.480;-6.300;2023-04-22T05:43:00;99980.31;;;12.90;59.41
61537;BME280;48695;53.480;-6.300;2023-04-22T05:45:25;99982.09;;;12.90;59.48
61537;BME280;48695;53.480;-6.300;2023-04-22T05:47:50;99982.00;;;12.91;59.66
61537;BME280;48695;53.480;-6.300;2023-04-22T05:50:16;99980.31;;;12.90;59.33
61537;BME280;48695;53.480;-6.300;2023-04-22T05:52:41;99976.84;;;12.90;59.66
61537;BME280;48695;53.480;-6.300;2023-04-22T05:55:07;99973.38;;;12.89;59.41
61537;BME280;48695;53.480;-6.300;2023-04-22T05:57:32;99956.47;;;12.76;59.53
61537;BME280;48695;53.480;-6.300;2023-04-22T05:59:59;99971.81;;;12.85;59.78
61537;BME280;48695;53.480;-6.300;2023-04-22T06:02:24;99962.44;;;12.80;59.97
61537;BME280;48695;53.480;-6.300;2023-04-22T06:04:50;99958.06;;;12.80;59.86
61537;BME280;48695;53.480;-6.300;2023-04-22T06:07:15;99965.72;;;12.85;59.57
61537;BME280;48695;53.480;-6.300;2023-04-22T06:09:41;99965.72;;;12.85;60.01
61537;BME280;48695;53.480;-6.300;2023-04-22T06:12:06;99958.78;;;12.84;59.99
61537;BME280;48695;53.480;-6.300;2023-04-22T06:14:32;99946.59;;;12.83;60.07
61537;BME280;48695;53.480;-6.300;2023-04-22T06:16:57;99951.84;;;12.83;60.01
61537;BME280;48695;53.480;-6.300;2023-04-22T06:19:22;99956.19;;;12.82;59.68
61537;BME280;48695;53.480;-6.300;2023-04-22T06:21:48;99938.22;;;12.75;59.78
61537;BME280;48695;53.480;-6.300;2023-04-22T06:24:13;99950.06;;;12.83;59.78
61537;BME280;48695;53.480;-6.300;2023-04-22T06:26:39;99955.22;;;12.85;59.62
61537;BME280;48695;53.480;-6.300;2023-04-22T06:29:04;99955.22;;;12.85;60.01
61537;BME280;48695;53.480;-6.300;2023-04-22T06:31:30;99950.13;;;12.82;60.06
61537;BME280;48695;53.480;-6.300;2023-04-22T06:33:56;99955.13;;;12.88;59.84
61537;BME280;48695;53.480;-6.300;2023-04-22T06:36:22;99953.25;;;12.90;59.64
61537;BME280;48695;53.480;-6.300;2023-04-22T06:38:48;99946.16;;;12.92;59.58
61537;BME280;48695;53.480;-6.300;2023-04-22T06:41:15;99947.91;;;12.93;59.43
61537;BME280;48695;53.480;-6.300;2023-04-22T06:43:41;99944.28;;;12.95;59.79
61537;BME280;48695;53.480;-6.300;2023-04-22T06:46:06;99937.97;;;12.99;59.73
61537;BME280;48695;53.480;-6.300;2023-04-22T06:48:32;99933.59;;;13.00;59.76
61537;BME280;48695;53.480;-6.300;2023-04-22T06:50:57;99936.00;;;13.05;59.85
61537;BME280;48695;53.480;-6.300;2023-04-22T06:53:23;99931.47;;;13.08;59.99
61537;BME280;48695;53.480;-6.300;2023-04-22T06:55:48;99926.09;;;13.11;59.81
61537;BME280;48695;53.480;-6.300;2023-04-22T06:58:14;99919.72;;;13.17;59.54
61537;BME280;48695;53.480;-6.300;2023-04-22T07:00:39;99923.00;;;13.22;59.86
61537;BME280;48695;53.480;-6.300;2023-04-22T07:03:05;99920.16;;;13.27;59.88
61537;BME280;48695;53.480;-6.300;2023-04-22T07:05:30;99919.03;;;13.32;59.71
61537;BME280;48695;53.480;-6.300;2023-04-22T07:07:56;99924.88;;;13.39;59.24
61537;BME280;48695;53.480;-6.300;2023-04-22T07:10:21;99922.88;;;13.44;59.37
61537;BME280;48695;53.480;-6.300;2023-04-22T07:12:47;99920.81;;;13.50;59.27
61537;BME280;48695;53.480;-6.300;2023-04-22T07:15:12;99922.41;;;13.53;59.33
61537;BME280;48695;53.480;-6.300;2023-04-22T07:17:38;99918.72;;;13.57;59.21
61537;BME280;48695;53.480;-6.300;2023-04-22T07:20:04;99918.59;;;13.60;58.91
61537;BME280;48695;53.480;-6.300;2023-04-22T07:22:29;99920.28;;;13.61;58.56
61537;BME280;48695;53.480;-6.300;2023-04-22T07:24:55;99915.13;;;13.60;58.77
61537;BME280;48695;53.480;-6.300;2023-04-22T07:27:20;99920.28;;;13.61;58.71
61537;BME280;48695;53.480;-6.300;2023-04-22T07:29:45;99909.03;;;13.59;58.79
61537;BME280;48695;53.480;-6.300;2023-04-22T07:32:11;99912.56;;;13.58;58.39
61537;BME280;48695;53.480;-6.300;2023-04-22T07:34:36;99915.19;;;13.58;58.71
61537;BME280;48695;53.480;-6.300;2023-04-22T07:37:02;99915.19;;;13.58;58.52
61537;BME280;48695;53.480;-6.300;2023-04-22T07:39:27;99907.31;;;13.58;58.25
61537;BME280;48695;53.480;-6.300;2023-04-22T07:41:53;99903.84;;;13.58;58.83
61537;BME280;48695;53.480;-6.300;2023-04-22T07:44:20;99903.78;;;13.59;58.29
61537;BME280;48695;53.480;-6.300;2023-04-22T07:46:47;99899.31;;;13.61;58.31
61537;BME280;48695;53.480;-6.300;2023-04-22T07:49:13;99897.63;;;13.60;58.14
61537;BME280;48695;53.480;-6.300;2023-04-22T07:51:39;99897.44;;;13.63;58.32
61537;BME280;48695;53.480;-6.300;2023-04-22T07:54:05;99894.78;;;13.65;58.29
61537;BME280;48695;53.480;-6.300;2023-04-22T07:56:30;99895.63;;;13.65;58.25
61537;BME280;48695;53.480;-6.300;2023-04-22T07:58:56;99876.47;;;13.63;58.05
61537;BME280;48695;53.480;-6.300;2023-04-22T08:01:21;99880.50;;;13.70;58.01
61537;BME280;48695;53.480;-6.300;2023-04-22T08:03:47;99886.38;;;13.75;58.02
61537;BME280;48695;53.480;-6.300;2023-04-22T08:06:12;99875.88;;;13.75;57.94
61537;BME280;48695;53.480;-6.300;2023-04-22T08:08:37;99888.47;;;13.86;58.21
61537;BME280;48695;53.480;-6.300;2023-04-22T08:11:03;99879.44;;;13.92;58.13
61537;BME280;48695;53.480;-6.300;2023-04-22T08:13:29;99881.84;;;13.96;57.80
61537;BME280;48695;53.480;-6.300;2023-04-22T08:15:54;99879.31;;;13.95;57.60
61537;BME280;48695;53.480;-6.300;2023-04-22T08:18:20;99874.50;;;14.03;57.34
61537;BME280;48695;53.480;-6.300;2023-04-22T08:20:46;99878.75;;;14.06;57.12
61537;BME280;48695;53.480;-6.300;2023-04-22T08:23:11;99877.84;;;14.07;57.14
61537;BME280;48695;53.480;-6.300;2023-04-22T08:25:37;99875.13;;;14.08;57.12
61537;BME280;48695;53.480;-6.300;2023-04-22T08:28:02;99871.66;;;14.08;56.67
61537;BME280;48695;53.480;-6.300;2023-04-22T08:30:28;99865.47;;;14.09;56.87
61537;BME280;48695;53.480;-6.300;2023-04-22T08:32:53;99868.97;;;14.09;57.03
61537;BME280;48695;53.480;-6.300;2023-04-22T08:35:19;99871.59;;;14.09;57.13
61537;BME280;48695;53.480;-6.300;2023-04-22T08:37:44;99858.47;;;14.09;56.74
61537;BME280;48695;53.480;-6.300;2023-04-22T08:40:10;99854.06;;;14.10;56.87
61537;BME280;48695;53.480;-6.300;2023-04-22T08:42:36;99838.59;;;14.03;56.80
61537;BME280;48695;53.480;-6.300;2023-04-22T08:45:03;99841.00;;;14.08;56.88
61537;BME280;48695;53.480;-6.300;2023-04-22T08:47:30;99847.66;;;14.15;56.72
61537;BME280;48695;53.480;-6.300;2023-04-22T08:49:58;99827.25;;;14.03;57.04
61537;BME280;48695;53.480;-6.300;2023-04-22T08:52:26;99847.47;;;14.18;57.20
61537;BME280;48695;53.480;-6.300;2023-04-22T08:54:51;99847.31;;;14.21;57.04
61537;BME280;48695;53.480;-6.300;2023-04-22T08:57:17;99843.63;;;14.25;56.93
61537;BME280;48695;53.480;-6.300;2023-04-22T08:59:43;99839.22;;;14.26;56.89
61537;BME280;48695;53.480;-6.300;2023-04-22T09:02:19;99845.00;;;14.33;56.46
61537;BME280;48695;53.480;-6.300;2023-04-22T09:04:49;99840.53;;;14.35;56.67
61537;BME280;48695;53.480;-6.300;2023-04-22T09:07:24;99831.63;;;14.37;55.96
61537;BME280;48695;53.480;-6.300;2023-04-22T09:09:49;99829.09;;;14.36;56.53
61537;BME280;48695;53.480;-6.300;2023-04-22T09:12:15;99827.22;;;14.38;56.31
61537;BME280;48695;53.480;-6.300;2023-04-22T09:14:43;99828.91;;;14.39;56.71
61537;BME280;48695;53.480;-6.300;2023-04-22T09:17:09;99822.13;;;14.35;56.16
61537;BME280;48695;53.480;-6.300;2023-04-22T09:19:35;99825.28;;;14.41;56.44
61537;BME280;48695;53.480;-6.300;2023-04-22T09:22:01;99815.63;;;14.42;56.60
61537;BME280;48695;53.480;-6.300;2023-04-22T09:24:26;99809.44;;;14.43;56.14
61537;BME280;48695;53.480;-6.300;2023-04-22T09:26:54;99809.44;;;14.43;55.82
61537;BME280;48695;53.480;-6.300;2023-04-22T09:29:21;99807.00;;;14.40;55.92
61537;BME280;48695;53.480;-6.300;2023-04-22T09:31:48;99796.03;;;14.32;56.18
61537;BME280;48695;53.480;-6.300;2023-04-22T09:34:14;99797.38;;;14.39;56.03
61537;BME280;48695;53.480;-6.300;2023-04-22T09:36:42;99797.25;;;14.42;56.40
61537;BME280;48695;53.480;-6.300;2023-04-22T09:39:07;99801.56;;;14.43;56.21
61537;BME280;48695;53.480;-6.300;2023-04-22T09:44:00;99794.91;;;14.53;56.27
61537;BME280;48695;53.480;-6.300;2023-04-22T09:46:26;99798.00;;;14.61;56.28
61537;BME280;48695;53.480;-6.300;2023-04-22T09:48:57;99797.41;;;14.72;56.25
61537;BME280;48695;53.480;-6.300;2023-04-22T09:51:23;99798.69;;;14.81;56.18
61537;BME280;48695;53.480;-6.300;2023-04-22T09:54:05;99789.19;;;14.94;55.48
61537;BME280;48695;53.480;-6.300;2023-04-22T09:56:46;99806.84;;;15.08;54.94
61537;BME280;48695;53.480;-6.300;2023-04-22T09:59:24;99776.47;;;15.02;55.05
61537;BME280;48695;53.480;-6.300;2023-04-22T10:02:00;99791.22;;;15.20;55.07
61537;BME280;48695;53.480;-6.300;2023-04-22T10:04:28;99798.19;;;15.21;55.29
61537;BME280;48695;53.480;-6.300;2023-04-22T10:06:54;99768.81;;;15.13;55.29
61537;BME280;48695;53.480;-6.300;2023-04-22T10:09:22;99784.50;;;15.30;54.94
61537;BME280;48695;53.480;-6.300;2023-04-22T10:11:49;99789.50;;;15.35;55.24
61537;BME280;48695;53.480;-6.300;2023-04-22T10:14:14;99781.53;;;15.37;55.06
61537;BME280;48695;53.480;-6.300;2023-04-22T10:16:42;99770.06;;;15.38;54.69
61537;BME280;48695;53.480;-6.300;2023-04-22T10:19:12;99780.13;;;15.45;55.10
61537;BME280;48695;53.480;-6.300;2023-04-22T10:21:40;99764.03;;;15.36;54.55
61537;BME280;48695;53.480;-6.300;2023-04-22T10:24:14;99786.09;;;15.49;54.33
61537;BME280;48695;53.480;-6.300;2023-04-22T10:26:42;99780.97;;;15.46;54.68
61537;BME280;48695;53.480;-6.300;2023-04-22T10:29:12;99786.25;;;15.46;54.15
61537;BME280;48695;53.480;-6.300;2023-04-22T10:31:44;99779.66;;;15.39;54.30
61537;BME280;48695;53.480;-6.300;2023-04-22T10:34:16;99769.66;;;15.29;54.45
61537;BME280;48695;53.480;-6.300;2023-04-22T10:36:59;99776.28;;;15.37;54.09
61537;BME280;48695;53.480;-6.300;2023-04-22T10:39:26;99781.09;;;15.28;54.37
61537;BME280;48695;53.480;-6.300;2023-04-22T10:42:12;99775.84;;;15.28;53.83
61537;BME280;48695;53.480;-6.300;2023-04-22T10:44:46;99777.91;;;15.23;53.77
61537;BME280;48695;53.480;-6.300;2023-04-22T10:47:32;99778.06;;;15.20;53.96
61537;BME280;48695;53.480;-6.300;2023-04-22T10:50:21;99775.72;;;15.16;53.97
61537;BME280;48695;53.480;-6.300;2023-04-22T10:52:54;99767.28;;;15.09;53.89
61537;BME280;48695;53.480;-6.300;2023-04-22T10:55:20;99775.53;;;15.03;54.22
61537;BME280;48695;53.480;-6.300;2023-04-22T10:57:47;99766.13;;;14.99;54.23
61537;BME280;48695;53.480;-6.300;2023-04-22T11:00:18;99763.44;;;15.00;54.27
61537;BME280;48695;53.480;-6.300;2023-04-22T11:02:45;99763.69;;;14.96;54.25
61537;BME280;48695;53.480;-6.300;2023-04-22T11:05:25;99772.22;;;14.99;53.83
61537;BME280;48695;53.480;-6.300;2023-04-22T11:07:57;99768.00;;;14.97;53.98
61537;BME280;48695;53.480;-6.300;2023-04-22T11:10:50;99767.81;;;15.00;54.19
61537;BME280;48695;53.480;-6.300;2023-04-22T11:13:20;99766.13;;;14.99;54.16
61537;BME280;48695;53.480;-6.300;2023-04-22T11:15:52;99764.28;;;15.01;54.10
61537;BME280;48695;53.480;-6.300;2023-04-22T11:18:23;99757.13;;;15.03;54.30
61537;BME280;48695;53.480;-6.300;2023-04-22T11:20:49;99762.38;;;15.03;54.24
61537;BME280;48695;53.480;-6.300;2023-04-22T11:23:20;99756.97;;;15.06;54.44
61537;BME280;48695;53.480;-6.300;2023-04-22T11:25:46;99750.78;;;15.07;54.50
61537;BME280;48695;53.480;-6.300;2023-04-22T11:28:11;99758.31;;;15.13;54.39
61537;BME280;48695;53.480;-6.300;2023-04-22T11:30:37;99737.78;;;15.04;54.51
61537;BME280;48695;53.480;-6.300;2023-04-22T11:33:02;99752.69;;;15.19;54.47
61537;BME280;48695;53.480;-6.300;2023-04-22T11:35:32;99747.28;;;15.22;54.16
61537;BME280;48695;53.480;-6.300;2023-04-22T11:38:05;99757.59;;;15.25;53.72
61537;BME280;48695;53.480;-6.300;2023-04-22T11:40:35;99750.50;;;15.27;53.97
61537;BME280;48695;53.480;-6.300;2023-04-22T11:43:02;99745.22;;;15.27;53.81
61537;BME280;48695;53.480;-6.300;2023-04-22T11:45:29;99758.28;;;15.29;52.87
61537;BME280;48695;53.480;-6.300;2023-04-22T11:47:55;99754.22;;;15.23;52.81
61537;BME280;48695;53.480;-6.300;2023-04-22T11:50:23;99703.72;;;14.87;52.62
61537;BME280;48695;53.480;-6.300;2023-04-22T11:53:00;99758.91;;;15.18;52.10
61537;BME280;48695;53.480;-6.300;2023-04-22T11:55:31;99751.78;;;15.04;52.16
61537;BME280;48695;53.480;-6.300;2023-04-22T12:00:29;99741.88;;;14.78;53.66
61537;BME280;48695;53.480;-6.300;2023-04-22T12:03:05;99762.41;;;14.71;56.68
61537;BME280;48695;53.480;-6.300;2023-04-22T12:08:09;99768.59;;;14.37;59.09
61537;BME280;48695;53.480;-6.300;2023-04-22T12:10:40;99751.31;;;14.00;59.61
61537;BME280;48695;53.480;-6.300;2023-04-22T12:13:07;99767.84;;;13.85;60.66
61537;BME280;48695;53.480;-6.300;2023-04-22T12:15:41;99756.31;;;13.53;60.74
61537;BME280;48695;53.480;-6.300;2023-04-22T12:18:07;99754.50;;;13.18;64.08
61537;BME280;48695;53.480;-6.300;2023-04-22T12:20:34;99769.03;;;13.07;63.61
61537;BME280;48695;53.480;-6.300;2023-04-22T12:22:59;99775.22;;;12.87;64.80
61537;BME280;48695;53.480;-6.300;2023-04-22T12:25:25;99774.38;;;12.67;65.74
61537;BME280;48695;53.480;-6.300;2023-04-22T12:27:51;99775.09;;;12.52;66.89
61537;BME280;48695;53.480;-6.300;2023-04-22T12:30:16;99778.41;;;12.37;67.61
61537;BME280;48695;53.480;-6.300;2023-04-22T12:32:42;99774.63;;;12.24;65.50
61537;BME280;48695;53.480;-6.300;2023-04-22T12:35:07;99780.19;;;12.16;66.80
61537;BME280;48695;53.480;-6.300;2023-04-22T12:37:33;99782.34;;;12.06;68.71
61537;BME280;48695;53.480;-6.300;2023-04-22T12:39:58;99775.56;;;12.02;68.80
61537;BME280;48695;53.480;-6.300;2023-04-22T12:42:24;99781.84;;;11.98;69.93
61537;BME280;48695;53.480;-6.300;2023-04-22T12:44:50;99766.53;;;11.89;68.81
61537;BME280;48695;53.480;-6.300;2023-04-22T12:47:15;99778.41;;;11.96;69.09
61537;BME280;48695;53.480;-6.300;2023-04-22T12:49:42;99778.41;;;11.96;69.76
61537;BME280;48695;53.480;-6.300;2023-04-22T12:52:08;99778.41;;;11.96;69.29